createdAt,value
2018-05-07T00:00:13.263Z,78.34
2018-05-07T00:01:13.309Z,77.95
2018-05-07T00:02:13.277Z,77.67
2018-05-07T00:03:13.220Z,78.24
2018-05-07T00:04:13.199Z,78.81
2018-05-07T00:05:13.105Z,79.10
2018-05-07T00:06:13.221Z,79.10
2018-05-07T00:07:13.071Z,79.39
2018-05-07T00:08:13.113Z,79.20
2018-05-07T00:09:13.048Z,79.25
2018-05-07T00:10:13.126Z,78.49
2018-05-07T00:11:12.979Z,78.20
2018-05-07T00:12:13.038Z,78.39
2018-05-07T00:13:12.938Z,79.35
2018-05-07T00:14:12.950Z,79.93
2018-05-07T00:15:12.892Z,79.54
2018-05-07T00:16:12.965Z,79.83
2018-05-07T00:17:12.851Z,80.21
2018-05-07T00:18:12.877Z,80.21
2018-05-07T00:19:12.807Z,80.40
2018-05-07T00:20:12.895Z,80.69
2018-05-07T00:21:12.767Z,80.50
2018-05-07T00:22:12.804Z,81.45
2018-05-07T00:23:12.722Z,80.79
2018-05-07T00:24:12.816Z,80.50
2018-05-07T00:25:12.679Z,80.40
2018-05-07T00:26:12.730Z,80.59
2018-05-07T00:27:12.635Z,80.88
2018-05-07T00:28:12.767Z,80.59
2018-05-07T00:29:12.595Z,81.45
2018-05-07T00:30:12.655Z,81.65
2018-05-07T00:31:12.551Z,81.84
2018-05-07T00:32:12.668Z,81.55
2018-05-07T00:33:12.542Z,82.31
2018-05-07T00:34:12.578Z,81.65
2018-05-07T00:35:12.490Z,82.28
2018-05-07T00:36:12.601Z,82.18
2018-05-07T00:37:12.427Z,82.18
2018-05-07T00:38:12.508Z,81.89
2018-05-07T00:39:12.382Z,81.41
2018-05-07T00:40:12.525Z,82.41
2018-05-07T00:41:12.337Z,81.79
2018-05-07T00:42:12.436Z,81.26
2018-05-07T00:43:12.295Z,81.26
2018-05-07T00:44:12.345Z,81.51
2018-05-07T00:45:12.251Z,81.65
2018-05-07T00:46:12.356Z,81.65
2018-05-07T00:47:12.209Z,81.32
2018-05-07T00:48:12.270Z,81.13
2018-05-07T00:49:12.165Z,81.79
2018-05-07T00:50:12.282Z,81.60
2018-05-07T00:51:12.121Z,81.41
2018-05-07T00:52:12.198Z,81.89
2018-05-07T00:53:12.079Z,81.70
2018-05-07T00:54:12.212Z,82.65
2018-05-07T00:55:12.038Z,81.70
2018-05-07T00:56:12.120Z,82.75
2018-05-07T00:57:11.991Z,82.75
2018-05-07T00:58:12.136Z,82.65
2018-05-07T00:59:11.948Z,82.56
2018-05-07T01:00:12.048Z,82.94
2018-05-07T01:01:11.902Z,82.28
2018-05-07T01:02:11.960Z,81.89
2018-05-07T01:03:11.857Z,81.85
2018-05-07T01:04:11.970Z,82.32
2018-05-07T01:05:11.817Z,82.46
2018-05-07T01:06:11.885Z,83.00
2018-05-07T01:07:11.773Z,82.81
2018-05-07T01:08:11.898Z,82.71
2018-05-07T01:09:11.732Z,83.00
2018-05-07T01:10:11.815Z,82.81
2018-05-07T01:11:11.686Z,82.90
2018-05-07T01:12:11.820Z,82.61
2018-05-07T01:13:11.641Z,82.61
2018-05-07T01:14:11.734Z,82.71
2018-05-07T01:15:11.595Z,82.52
2018-05-07T01:16:11.754Z,82.52
2018-05-07T01:17:11.552Z,82.81
2018-05-07T01:18:11.663Z,83.57
2018-05-07T01:19:11.507Z,83.09
2018-05-07T01:20:11.767Z,83.38
2018-05-07T01:21:11.462Z,83.28
2018-05-07T01:22:11.587Z,83.18
2018-05-07T01:23:11.419Z,83.18
2018-05-07T01:24:11.498Z,83.47
2018-05-07T01:25:11.379Z,83.18
2018-05-07T01:26:11.513Z,83.47
2018-05-07T01:27:11.334Z,82.71
2018-05-07T01:28:11.425Z,83.47
2018-05-07T01:29:11.289Z,83.86
2018-05-07T01:30:11.439Z,83.95
2018-05-07T01:31:11.245Z,83.86
2018-05-07T01:32:11.347Z,83.47
2018-05-07T01:33:11.199Z,83.57
2018-05-07T01:34:11.369Z,82.90
2018-05-07T01:35:11.153Z,83.38
2018-05-07T01:36:11.276Z,83.28
2018-05-07T01:37:11.112Z,83.67
2018-05-07T01:38:11.200Z,84.81
2018-05-07T01:39:11.070Z,85.25
2018-05-07T01:40:11.205Z,85.05
2018-05-07T01:41:11.023Z,84.86
2018-05-07T01:42:11.116Z,85.53
2018-05-07T01:43:10.987Z,85.00
2018-05-07T01:44:11.131Z,85.34
2018-05-07T01:45:10.934Z,85.25
2018-05-07T01:46:11.036Z,85.05
2018-05-07T01:47:10.889Z,85.15
2018-05-07T01:48:11.054Z,85.15
2018-05-07T01:49:10.845Z,84.67
2018-05-07T01:50:10.965Z,84.96
2018-05-07T01:51:10.800Z,85.05
2018-05-07T01:52:10.980Z,85.15
2018-05-07T01:53:10.757Z,85.44
2018-05-07T01:54:10.893Z,85.91
2018-05-07T01:55:10.711Z,85.53
2018-05-07T01:56:10.904Z,85.15
2018-05-07T01:57:10.675Z,84.96
2018-05-07T01:58:10.819Z,85.82
2018-05-07T01:59:10.622Z,85.72
2018-05-07T02:00:10.626Z,85.44
2018-05-07T02:01:10.581Z,86.01
2018-05-07T02:02:10.640Z,86.49
2018-05-07T02:03:10.535Z,86.39
2018-05-07T02:04:10.551Z,85.53
2018-05-07T02:05:10.493Z,85.63
2018-05-07T02:06:10.567Z,86.58
2018-05-07T02:07:10.439Z,86.20
2018-05-07T02:08:10.478Z,86.01
2018-05-07T02:09:10.405Z,85.82
2018-05-07T02:10:10.487Z,85.63
2018-05-07T02:11:10.359Z,85.05
2018-05-07T02:12:10.404Z,84.96
2018-05-07T02:13:10.308Z,85.53
2018-05-07T02:14:10.319Z,85.91
2018-05-07T02:15:10.265Z,85.77
2018-05-07T02:16:10.329Z,85.21
2018-05-07T02:17:10.218Z,85.77
2018-05-07T02:18:10.243Z,85.91
2018-05-07T02:19:10.181Z,86.06
2018-05-07T02:20:10.255Z,87.11
2018-05-07T02:21:10.124Z,87.35
2018-05-07T02:22:10.166Z,87.49
2018-05-07T02:23:10.087Z,87.02
2018-05-07T02:24:10.180Z,87.40
2018-05-07T02:25:10.041Z,87.15
2018-05-07T02:26:10.093Z,86.44
2018-05-07T02:27:09.993Z,86.35
2018-05-07T02:28:10.108Z,86.73
2018-05-07T02:29:09.948Z,86.82
2018-05-07T02:30:10.016Z,87.30
2018-05-07T02:31:09.903Z,87.49
2018-05-07T02:32:09.929Z,87.11
2018-05-07T02:33:09.859Z,87.30
2018-05-07T02:34:09.952Z,87.21
2018-05-07T02:35:09.812Z,87.21
2018-05-07T02:36:09.854Z,87.49
2018-05-07T02:37:09.776Z,87.78
2018-05-07T02:38:09.873Z,87.30
2018-05-07T02:39:09.722Z,86.82
2018-05-07T02:40:09.784Z,86.44
2018-05-07T02:41:09.675Z,86.44
2018-05-07T02:42:09.799Z,87.30
2018-05-07T02:43:09.629Z,87.11
2018-05-07T02:44:09.710Z,87.49
2018-05-07T02:45:09.582Z,87.11
2018-05-07T02:46:09.623Z,86.92
2018-05-07T02:47:09.543Z,87.02
2018-05-07T02:48:09.636Z,86.82
2018-05-07T02:49:09.492Z,87.11
2018-05-07T02:50:09.549Z,87.30
2018-05-07T02:51:09.450Z,86.92
2018-05-07T02:52:09.566Z,86.82
2018-05-07T02:53:09.403Z,86.88
2018-05-07T02:54:09.471Z,87.11
2018-05-07T02:55:09.357Z,87.16
2018-05-07T02:56:09.485Z,87.45
2018-05-07T02:57:09.314Z,88.50
2018-05-07T02:58:09.396Z,88.12
2018-05-07T02:59:09.269Z,87.83
2018-05-07T03:00:09.408Z,87.83
2018-05-07T03:01:09.219Z,87.54
2018-05-07T03:02:09.324Z,87.26
2018-05-07T03:03:09.178Z,88.21
2018-05-07T03:04:09.236Z,88.21
2018-05-07T03:05:09.127Z,88.21
2018-05-07T03:06:09.248Z,87.74
2018-05-07T03:07:09.082Z,87.64
2018-05-07T03:08:09.164Z,88.31
2018-05-07T03:09:09.038Z,88.02
2018-05-07T03:10:09.183Z,87.83
2018-05-07T03:11:08.989Z,88.21
2018-05-07T03:12:09.198Z,87.93
2018-05-07T03:13:08.943Z,89.45
2018-05-07T03:14:09.109Z,89.36
2018-05-07T03:15:08.896Z,88.98
2018-05-07T03:16:09.023Z,88.59
2018-05-07T03:17:08.850Z,88.98
2018-05-07T03:18:08.931Z,89.93
2018-05-07T03:19:08.806Z,89.74
2018-05-07T03:20:08.946Z,89.45
2018-05-07T03:21:08.759Z,88.69
2018-05-07T03:22:08.860Z,89.07
2018-05-07T03:23:08.712Z,89.17
2018-05-07T03:24:08.885Z,89.45
2018-05-07T03:25:08.667Z,89.45
2018-05-07T03:26:08.786Z,89.93
2018-05-07T03:27:08.624Z,89.54
2018-05-07T03:28:08.798Z,89.83
2018-05-07T03:29:08.576Z,89.26
2018-05-07T03:30:08.714Z,89.74
2018-05-07T03:31:08.520Z,89.54
2018-05-07T03:32:08.620Z,89.17
2018-05-07T03:33:08.483Z,89.07
2018-05-07T03:34:08.637Z,89.17
2018-05-07T03:35:08.436Z,89.54
2018-05-07T03:36:08.547Z,89.93
2018-05-07T03:37:08.389Z,89.83
2018-05-07T03:38:08.602Z,89.74
2018-05-07T03:39:08.343Z,89.07
2018-05-07T03:40:08.477Z,89.74
2018-05-07T03:41:08.295Z,89.74
2018-05-07T03:42:08.384Z,89.54
2018-05-07T03:43:08.240Z,89.93
2018-05-07T03:44:08.401Z,89.26
2018-05-07T03:45:08.213Z,89.07
2018-05-07T03:46:09.336Z,89.17
2018-05-07T03:47:08.163Z,89.22
2018-05-07T03:48:08.327Z,89.83
2018-05-07T03:49:08.116Z,89.74
2018-05-07T03:50:08.236Z,89.64
2018-05-07T03:51:08.063Z,89.93
2018-05-07T03:52:08.251Z,89.54
2018-05-07T03:53:08.009Z,90.03
2018-05-07T03:54:08.163Z,90.12
2018-05-07T03:55:07.969Z,89.93
2018-05-07T03:56:08.076Z,90.03
2018-05-07T03:57:07.923Z,89.89
2018-05-07T03:58:08.091Z,90.03
2018-05-07T03:59:07.882Z,90.12
2018-05-07T04:00:07.998Z,89.83
2018-05-07T04:01:07.845Z,90.12
2018-05-07T04:02:08.014Z,89.54
2018-05-07T04:03:07.777Z,89.98
2018-05-07T04:04:07.823Z,90.26
2018-05-07T04:05:07.741Z,89.64
2018-05-07T04:06:07.839Z,89.83
2018-05-07T04:07:07.683Z,89.89
2018-05-07T04:08:07.754Z,89.89
2018-05-07T04:09:07.657Z,89.98
2018-05-07T04:10:07.664Z,90.03
2018-05-07T04:11:07.605Z,89.89
2018-05-07T04:12:07.678Z,90.17
2018-05-07T04:13:07.638Z,90.17
2018-05-07T04:14:07.588Z,89.50
2018-05-07T04:15:07.505Z,90.08
2018-05-07T04:16:07.600Z,90.17
2018-05-07T04:17:07.458Z,90.17
2018-05-07T04:18:07.513Z,89.69
2018-05-07T04:19:07.422Z,90.26
2018-05-07T04:20:07.525Z,89.60
2018-05-07T04:21:07.369Z,90.17
2018-05-07T04:22:07.437Z,90.26
2018-05-07T04:23:07.321Z,90.26
2018-05-07T04:24:07.350Z,90.08
2018-05-07T04:25:07.272Z,90.03
2018-05-07T04:26:07.363Z,90.08
2018-05-07T04:27:07.226Z,89.89
2018-05-07T04:28:07.279Z,90.12
2018-05-07T04:29:07.176Z,90.50
2018-05-07T04:30:07.288Z,90.50
2018-05-07T04:31:07.128Z,90.74
2018-05-07T04:32:07.201Z,90.64
2018-05-07T04:33:07.083Z,90.84
2018-05-07T04:34:07.120Z,90.64
2018-05-07T04:35:07.033Z,91.13
2018-05-07T04:36:07.126Z,90.64
2018-05-07T04:37:06.990Z,90.88
2018-05-07T04:38:07.038Z,90.31
2018-05-07T04:39:06.941Z,90.26
2018-05-07T04:40:07.053Z,90.03
2018-05-07T04:41:06.896Z,90.03
2018-05-07T04:42:06.965Z,89.83
2018-05-07T04:43:06.845Z,89.93
2018-05-07T04:44:06.977Z,90.22
2018-05-07T04:45:06.803Z,90.22
2018-05-07T04:46:06.890Z,89.93
2018-05-07T04:47:06.753Z,89.93
2018-05-07T04:48:06.802Z,90.03
2018-05-07T04:49:06.704Z,89.64
2018-05-07T04:50:06.814Z,89.74
2018-05-07T04:51:06.661Z,90.50
2018-05-07T04:52:06.734Z,91.36
2018-05-07T04:53:06.616Z,91.36
2018-05-07T04:54:06.743Z,91.64
2018-05-07T04:55:06.644Z,91.74
2018-05-07T04:56:06.725Z,91.17
2018-05-07T04:57:06.521Z,91.17
2018-05-07T04:58:06.565Z,91.46
2018-05-07T04:59:06.471Z,90.50
2018-05-07T05:00:06.649Z,90.50
2018-05-07T05:01:06.433Z,90.59
2018-05-07T05:02:06.491Z,90.12
2018-05-07T05:03:06.378Z,90.41
2018-05-07T05:04:06.504Z,90.98
2018-05-07T05:05:06.330Z,90.69
2018-05-07T05:06:06.416Z,90.59
2018-05-07T05:07:06.290Z,90.69
2018-05-07T05:08:06.430Z,90.50
2018-05-07T05:09:06.240Z,90.59
2018-05-07T05:10:06.341Z,90.50
2018-05-07T05:11:06.191Z,90.88
2018-05-07T05:12:06.292Z,90.83
2018-05-07T05:13:06.147Z,90.55
2018-05-07T05:14:06.269Z,90.83
2018-05-07T05:15:06.100Z,90.73
2018-05-07T05:16:06.184Z,90.22
2018-05-07T05:17:06.052Z,89.88
2018-05-07T05:18:06.197Z,89.97
2018-05-07T05:19:06.011Z,89.69
2018-05-07T05:20:06.109Z,90.17
2018-05-07T05:21:05.979Z,89.78
2018-05-07T05:22:06.118Z,89.78
2018-05-07T05:23:05.911Z,89.50
2018-05-07T05:24:06.033Z,89.88
2018-05-07T05:25:05.865Z,89.97
2018-05-07T05:26:05.943Z,88.87
2018-05-07T05:27:05.819Z,88.73
2018-05-07T05:28:05.958Z,88.87
2018-05-07T05:29:05.773Z,88.78
2018-05-07T05:30:05.874Z,88.78
2018-05-07T05:31:05.728Z,88.78
2018-05-07T05:32:05.884Z,88.11
2018-05-07T05:33:05.682Z,88.40
2018-05-07T05:34:05.795Z,88.11
2018-05-07T05:35:05.634Z,87.54
2018-05-07T05:36:05.809Z,87.73
2018-05-07T05:37:05.589Z,87.82
2018-05-07T05:38:05.720Z,87.92
2018-05-07T05:39:05.550Z,87.48
2018-05-07T05:40:05.634Z,87.01
2018-05-07T05:41:05.496Z,86.91
2018-05-07T05:42:05.647Z,87.68
2018-05-07T05:43:05.447Z,87.58
2018-05-07T05:44:05.597Z,87.10
2018-05-07T05:45:05.405Z,86.91
2018-05-07T05:46:05.566Z,86.63
2018-05-07T05:47:05.359Z,86.43
2018-05-07T05:48:05.489Z,86.05
2018-05-07T05:49:05.321Z,86.53
2018-05-07T05:50:05.574Z,85.90
2018-05-07T05:51:05.269Z,86.34
2018-05-07T05:52:05.416Z,86.19
2018-05-07T05:53:05.224Z,85.42
2018-05-07T05:54:05.330Z,86.10
2018-05-07T05:55:05.176Z,85.62
2018-05-07T05:56:05.345Z,85.62
2018-05-07T05:57:05.132Z,85.14
2018-05-07T05:58:05.153Z,84.76
2018-05-07T05:59:05.083Z,84.09
2018-05-07T06:00:05.173Z,84.76
2018-05-07T06:01:05.043Z,84.66
2018-05-07T06:02:05.086Z,84.66
2018-05-07T06:03:04.993Z,84.52
2018-05-07T06:04:05.190Z,83.56
2018-05-07T06:05:04.945Z,83.37
2018-05-07T06:06:05.010Z,83.27
2018-05-07T06:07:04.906Z,82.51
2018-05-07T06:08:04.915Z,82.60
2018-05-07T06:09:04.903Z,82.51
2018-05-07T06:10:04.930Z,82.89
2018-05-07T06:11:04.812Z,82.12
2018-05-07T06:12:04.842Z,82.79
2018-05-07T06:13:04.768Z,82.60
2018-05-07T06:14:04.748Z,82.03
2018-05-07T06:15:04.721Z,81.97
2018-05-07T06:16:04.762Z,81.88
2018-05-07T06:17:04.683Z,81.97
2018-05-07T06:18:04.780Z,81.78
2018-05-07T06:19:04.637Z,81.40
2018-05-07T06:20:04.691Z,81.88
2018-05-07T06:21:04.593Z,81.11
2018-05-07T06:22:04.603Z,80.06
2018-05-07T06:23:04.541Z,79.10
2018-05-07T06:24:04.615Z,78.66
2018-05-07T06:25:04.501Z,78.76
2018-05-07T06:26:04.526Z,78.66
2018-05-07T06:27:04.463Z,79.14
2018-05-07T06:28:04.540Z,77.80
2018-05-07T06:29:04.411Z,77.61
2018-05-07T06:30:04.451Z,76.94
2018-05-07T06:31:04.364Z,77.13
2018-05-07T06:32:04.363Z,76.84
2018-05-07T06:33:04.334Z,76.89
2018-05-07T06:34:04.379Z,76.69
2018-05-07T06:35:04.278Z,76.89
2018-05-07T06:36:04.290Z,77.08
2018-05-07T06:37:04.236Z,76.89
2018-05-07T06:38:04.302Z,76.40
2018-05-07T06:39:04.186Z,75.26
2018-05-07T06:40:04.220Z,75.16
2018-05-07T06:41:04.143Z,75.45
2018-05-07T06:42:04.233Z,74.68
2018-05-07T06:43:04.101Z,76.02
2018-05-07T06:44:04.148Z,74.40
2018-05-07T06:45:04.057Z,73.19
2018-05-07T06:46:04.061Z,74.05
2018-05-07T06:47:04.015Z,73.19
2018-05-07T06:48:04.071Z,73.57
2018-05-07T06:49:03.969Z,73.76
2018-05-07T06:50:03.982Z,73.09
2018-05-07T06:51:03.929Z,73.19
2018-05-07T06:52:04.044Z,73.09
2018-05-07T06:53:03.891Z,73.38
2018-05-07T06:54:03.911Z,73.09
2018-05-07T06:55:03.845Z,73.19
2018-05-07T06:56:03.928Z,72.80
2018-05-07T06:57:03.793Z,72.71
2018-05-07T06:58:03.838Z,72.84
2018-05-07T06:59:03.754Z,73.09
2018-05-07T07:00:03.749Z,73.61
2018-05-07T07:01:03.713Z,72.94
2018-05-07T07:02:03.760Z,72.84
2018-05-07T07:03:03.712Z,72.55
2018-05-07T07:04:03.671Z,72.36
2018-05-07T07:05:03.629Z,72.36
2018-05-07T07:06:03.682Z,72.55
2018-05-07T07:07:03.579Z,72.94
2018-05-07T07:08:03.619Z,72.74
2018-05-07T07:09:03.541Z,72.17
2018-05-07T07:10:03.609Z,71.63
2018-05-07T07:11:03.503Z,71.63
2018-05-07T07:12:03.520Z,71.25
2018-05-07T07:13:03.450Z,71.44
2018-05-07T07:14:03.554Z,70.38
2018-05-07T07:15:03.408Z,70.09
2018-05-07T07:16:03.440Z,70.38
2018-05-07T07:17:03.370Z,70.96
2018-05-07T07:18:03.349Z,70.76
2018-05-07T07:19:03.324Z,70.48
2018-05-07T07:20:03.375Z,69.71
2018-05-07T07:21:03.278Z,68.66
2018-05-07T07:22:04.306Z,68.69
2018-05-07T07:23:03.241Z,67.73
2018-05-07T07:24:03.297Z,68.40
2018-05-07T07:25:03.198Z,68.88
2018-05-07T07:26:03.209Z,68.21
2018-05-07T07:27:03.154Z,67.35
2018-05-07T07:28:03.295Z,66.77
2018-05-07T07:29:03.113Z,65.81
2018-05-07T07:30:03.179Z,65.62
2018-05-07T07:31:03.111Z,66.19
2018-05-07T07:32:03.202Z,67.35
2018-05-07T07:33:03.036Z,65.62
2018-05-07T07:34:03.155Z,65.72
2018-05-07T07:35:02.991Z,66.39
2018-05-07T07:36:03.076Z,66.96
2018-05-07T07:37:02.946Z,68.05
2018-05-07T07:38:02.985Z,67.19
2018-05-07T07:39:02.903Z,66.61
2018-05-07T07:40:02.897Z,67.19
2018-05-07T07:41:02.863Z,68.24
2018-05-07T07:42:02.912Z,68.73
2018-05-07T07:43:02.820Z,67.57
2018-05-07T07:44:02.823Z,66.71
2018-05-07T07:45:02.780Z,66.03
2018-05-07T07:46:02.838Z,65.46
2018-05-07T07:47:02.761Z,66.16
2018-05-07T07:48:02.752Z,66.16
2018-05-07T07:49:02.700Z,64.63
2018-05-07T07:50:02.766Z,63.57
2018-05-07T07:51:02.655Z,63.28
2018-05-07T07:52:02.685Z,64.63
2018-05-07T07:53:02.617Z,65.49
2018-05-07T07:54:02.692Z,64.25
2018-05-07T07:55:02.577Z,63.86
2018-05-07T07:56:02.598Z,63.48
2018-05-07T07:57:02.537Z,64.92
2018-05-07T07:58:02.622Z,65.11
2018-05-07T07:59:02.493Z,64.05
2018-05-07T08:00:02.527Z,63.96
2018-05-07T08:01:02.451Z,65.69
2018-05-07T08:02:02.542Z,66.36
2018-05-07T08:03:02.411Z,66.58
2018-05-07T08:04:02.453Z,66.39
2018-05-07T08:05:02.370Z,65.43
2018-05-07T08:06:02.367Z,65.81
2018-05-07T08:07:02.328Z,64.76
2018-05-07T08:08:02.379Z,64.85
2018-05-07T08:09:02.288Z,64.85
2018-05-07T08:10:02.292Z,65.53
2018-05-07T08:11:02.249Z,65.43
2018-05-07T08:12:02.334Z,63.54
2018-05-07T08:13:02.209Z,63.64
2018-05-07T08:14:02.216Z,64.50
2018-05-07T08:15:02.166Z,64.40
2018-05-07T08:16:02.240Z,64.50
2018-05-07T08:17:02.127Z,63.73
2018-05-07T08:18:02.142Z,63.25
2018-05-07T08:19:02.094Z,62.38
2018-05-07T08:20:02.156Z,61.52
2018-05-07T08:21:02.047Z,61.71
2018-05-07T08:22:02.067Z,61.04
2018-05-07T08:23:02.010Z,60.39
2018-05-07T08:24:02.081Z,60.94
2018-05-07T08:25:01.966Z,61.65
2018-05-07T08:26:01.995Z,61.07
2018-05-07T08:27:01.929Z,60.78
2018-05-07T08:28:02.011Z,61.07
2018-05-07T08:29:01.886Z,60.01
2018-05-07T08:30:01.921Z,60.69
2018-05-07T08:31:01.850Z,60.78
2018-05-07T08:32:01.935Z,61.94
2018-05-07T08:33:01.804Z,60.39
2018-05-07T08:34:01.844Z,60.78
2018-05-07T08:35:01.771Z,60.14
2018-05-07T08:36:01.859Z,59.66
2018-05-07T08:37:01.736Z,58.70
2018-05-07T08:38:01.769Z,59.17
2018-05-07T08:39:01.697Z,60.52
2018-05-07T08:40:01.785Z,59.94
2018-05-07T08:41:01.658Z,60.33
2018-05-07T08:42:01.695Z,58.98
2018-05-07T08:43:01.618Z,60.94
2018-05-07T08:44:01.608Z,59.59
2018-05-07T08:45:01.590Z,60.07
2018-05-07T08:46:01.620Z,58.92
2018-05-07T08:47:01.541Z,60.10
2018-05-07T08:48:01.534Z,56.92
2018-05-07T08:49:01.509Z,57.31
2018-05-07T08:50:01.550Z,58.11
2018-05-07T08:51:01.468Z,58.01
2018-05-07T08:52:01.460Z,58.88
2018-05-07T08:53:01.476Z,58.14
2018-05-07T08:54:01.474Z,56.59
2018-05-07T08:55:01.384Z,58.55
2018-05-07T08:56:01.385Z,55.27
2018-05-07T08:57:01.346Z,57.42
2018-05-07T08:58:01.399Z,55.68
2018-05-07T08:59:01.335Z,55.78
2018-05-07T09:00:01.311Z,56.84
2018-05-07T09:01:01.271Z,54.91
2018-05-07T09:02:01.326Z,54.91
2018-05-07T09:03:01.233Z,53.97
2018-05-07T09:04:01.237Z,55.62
2018-05-07T09:05:01.198Z,54.97
2018-05-07T09:06:01.254Z,55.55
2018-05-07T09:07:01.182Z,53.83
2018-05-07T09:08:01.196Z,53.35
2018-05-07T09:09:01.124Z,52.61
2018-05-07T09:10:01.106Z,53.77
2018-05-07T09:11:01.086Z,52.05
2018-05-07T09:12:01.190Z,52.53
2018-05-07T09:13:01.050Z,54.69
2018-05-07T09:14:01.207Z,51.88
2018-05-07T09:15:01.015Z,50.04
2018-05-07T09:16:01.119Z,50.07
2018-05-07T09:17:00.979Z,48.61
2018-05-07T09:18:01.131Z,48.49
2018-05-07T09:19:00.943Z,51.04
2018-05-07T09:20:01.044Z,49.97
2018-05-07T09:21:00.908Z,49.80
2018-05-07T09:22:01.056Z,48.08
2018-05-07T09:23:00.875Z,47.02
2018-05-07T09:24:00.972Z,46.24
2018-05-07T09:25:00.839Z,45.39
2018-05-07T09:26:00.983Z,44.59
2018-05-07T09:27:00.803Z,45.34
2018-05-07T09:28:00.940Z,48.06
2018-05-07T09:29:00.776Z,44.67
2018-05-07T09:30:00.912Z,44.96
2018-05-07T09:31:00.739Z,46.43
2018-05-07T09:32:00.820Z,46.02
2018-05-07T09:33:00.701Z,43.21
2018-05-07T09:34:00.833Z,44.68
2018-05-07T09:35:00.668Z,44.68
2018-05-07T09:36:00.745Z,44.88
2018-05-07T09:37:00.644Z,42.57
2018-05-07T09:38:00.759Z,43.93
2018-05-07T09:39:00.601Z,42.57
2018-05-07T09:40:00.773Z,41.80
2018-05-07T09:41:00.569Z,42.86
2018-05-07T09:42:00.684Z,42.57
2018-05-07T09:43:00.623Z,43.54
2018-05-07T09:44:00.703Z,45.31
2018-05-07T09:45:00.504Z,42.50
2018-05-07T09:46:00.611Z,42.30
2018-05-07T09:47:00.476Z,40.85
2018-05-07T09:48:00.625Z,41.53
2018-05-07T09:49:00.475Z,41.43
2018-05-07T09:50:00.537Z,43.30
2018-05-07T09:51:00.420Z,43.80
2018-05-07T09:52:00.551Z,40.60
2018-05-07T09:53:00.376Z,39.72
2018-05-07T09:54:00.565Z,40.29
2018-05-07T09:55:00.344Z,40.97
2018-05-07T09:56:00.476Z,41.84
2018-05-07T09:57:00.397Z,40.69
2018-05-07T09:58:00.490Z,41.59
2018-05-07T09:59:00.287Z,40.13
2018-05-07T10:00:00.400Z,41.69
2018-05-07T10:01:00.263Z,41.01
2018-05-07T10:02:00.423Z,40.06
2018-05-07T10:03:00.225Z,40.64
2018-05-07T10:04:00.356Z,38.31
2018-05-07T10:05:00.188Z,41.65
2018-05-07T10:06:00.360Z,37.89
2018-05-07T10:07:00.165Z,36.90
2018-05-07T10:08:00.371Z,38.20
2018-05-07T10:09:00.132Z,36.84
2018-05-07T10:10:00.270Z,37.02
2018-05-07T10:11:00.101Z,36.12
2018-05-07T10:12:00.290Z,39.43
2018-05-07T10:13:00.073Z,40.41
2018-05-07T10:14:00.201Z,38.95
2018-05-07T10:15:00.048Z,38.07
2018-05-07T10:16:00.112Z,38.65
2018-05-07T10:17:00.034Z,39.75
2018-05-07T10:18:00.125Z,38.38
2018-05-07T10:18:59.988Z,39.94
2018-05-07T10:20:00.035Z,38.96
2018-05-07T10:20:59.960Z,38.30
2018-05-07T10:22:00.049Z,38.71
2018-05-07T10:22:59.933Z,34.31
2018-05-07T10:23:59.959Z,35.16
2018-05-07T10:24:59.907Z,37.29
2018-05-07T10:25:59.975Z,37.89
2018-05-07T10:26:59.880Z,36.94
2018-05-07T10:27:59.983Z,36.24
2018-05-07T10:28:59.849Z,35.73
2018-05-07T10:29:59.899Z,38.15
2018-05-07T10:30:59.823Z,40.21
2018-05-07T10:31:59.918Z,36.80
2018-05-07T10:32:59.798Z,37.39
2018-05-07T10:33:59.826Z,40.01
2018-05-07T10:34:59.775Z,37.19
2018-05-07T10:35:59.840Z,37.58
2018-05-07T10:36:59.748Z,36.41
2018-05-07T10:37:59.853Z,36.12
2018-05-07T10:38:59.721Z,38.77
2018-05-07T10:39:59.766Z,37.29
2018-05-07T10:40:59.693Z,36.61
2018-05-07T10:41:59.777Z,38.09
2018-05-07T10:42:59.668Z,35.44
2018-05-07T10:43:59.796Z,37.29
2018-05-07T10:44:59.653Z,37.70
2018-05-07T10:45:59.705Z,37.99
2018-05-07T10:46:59.616Z,35.34
2018-05-07T10:47:59.717Z,36.71
2018-05-07T10:48:59.591Z,38.38
2018-05-07T10:49:59.634Z,37.70
2018-05-07T10:50:59.560Z,37.62
2018-05-07T10:51:59.643Z,36.63
2018-05-07T10:52:59.543Z,37.71
2018-05-07T10:53:59.658Z,38.40
2018-05-07T10:54:59.513Z,35.67
2018-05-07T10:55:59.569Z,35.16
2018-05-07T10:56:59.488Z,36.24
2018-05-07T10:57:59.582Z,37.31
2018-05-07T10:58:59.463Z,39.84
2018-05-07T10:59:59.596Z,37.43
2018-05-07T11:00:59.441Z,37.62
2018-05-07T11:01:59.508Z,37.41
2018-05-07T11:02:59.419Z,37.02
2018-05-07T11:03:59.524Z,35.94
2018-05-07T11:04:59.392Z,37.79
2018-05-07T11:05:59.543Z,38.28
2018-05-07T11:06:59.367Z,36.82
2018-05-07T11:07:59.446Z,39.96
2018-05-07T11:08:59.343Z,39.96
2018-05-07T11:09:59.462Z,36.76
2018-05-07T11:10:59.315Z,38.73
2018-05-07T11:11:59.371Z,38.26
2018-05-07T11:12:59.303Z,35.61
2018-05-07T11:13:59.386Z,34.05
2018-05-07T11:14:59.269Z,35.49
2018-05-07T11:15:59.400Z,35.96
2018-05-07T11:16:59.246Z,37.81
2018-05-07T11:17:59.254Z,39.39
2018-05-07T11:18:59.224Z,37.35
2018-05-07T11:19:59.327Z,37.37
2018-05-07T11:20:59.203Z,37.95
2018-05-07T11:21:59.341Z,38.35
2018-05-07T11:22:59.173Z,37.48
2018-05-07T11:23:59.251Z,37.67
2018-05-07T11:24:59.153Z,38.18
2018-05-07T11:25:59.268Z,37.70
2018-05-07T11:26:59.130Z,35.95
2018-05-07T11:27:59.293Z,35.64
2018-05-07T11:28:59.104Z,35.95
2018-05-07T11:29:59.186Z,34.09
2018-05-07T11:30:59.084Z,36.04
2018-05-07T11:31:59.211Z,37.21
2018-05-07T11:32:59.066Z,37.40
2018-05-07T11:33:59.222Z,34.57
2018-05-07T11:34:59.048Z,35.16
2018-05-07T11:35:59.133Z,35.35
2018-05-07T11:36:59.021Z,35.45
2018-05-07T11:37:59.152Z,35.46
2018-05-07T11:38:59.073Z,35.36
2018-05-07T11:39:59.161Z,32.62
2018-05-07T11:40:58.974Z,37.60
2018-05-07T11:41:58.995Z,36.82
2018-05-07T11:42:58.952Z,36.23
2018-05-07T11:43:58.949Z,36.91
2018-05-07T11:44:58.932Z,38.40
2018-05-07T11:45:59.022Z,35.85
2018-05-07T11:46:58.910Z,36.05
2018-05-07T11:47:58.929Z,36.05
2018-05-07T11:48:58.890Z,36.05
2018-05-07T11:49:58.886Z,36.34
2018-05-07T11:50:59.032Z,35.56
2018-05-07T11:51:58.858Z,34.48
2018-05-07T11:52:58.946Z,34.88
2018-05-07T11:53:58.836Z,34.78
2018-05-07T11:54:58.871Z,36.07
2018-05-07T11:55:58.852Z,34.80
2018-05-07T11:56:58.883Z,35.48
2018-05-07T11:57:58.794Z,35.48
2018-05-07T11:58:58.973Z,35.28
2018-05-07T11:59:58.851Z,33.61
2018-05-07T12:00:58.904Z,34.58
2018-05-07T12:01:58.755Z,34.80
2018-05-07T12:02:58.912Z,35.97
2018-05-07T12:03:58.732Z,36.28
2018-05-07T12:04:58.926Z,35.60
2018-05-07T12:05:58.713Z,33.26
2018-05-07T12:06:58.741Z,34.72
2018-05-07T12:07:58.696Z,34.42
2018-05-07T12:08:58.861Z,35.69
2018-05-07T12:09:58.673Z,33.84
2018-05-07T12:10:58.765Z,33.15
2018-05-07T12:11:58.654Z,34.60
2018-05-07T12:12:58.779Z,33.72
2018-05-07T12:13:58.634Z,33.61
2018-05-07T12:14:58.793Z,32.23
2018-05-07T12:15:58.647Z,34.65
2018-05-07T12:16:58.805Z,35.82
2018-05-07T12:17:58.600Z,35.45
2018-05-07T12:18:58.719Z,36.04
2018-05-07T12:19:58.576Z,36.13
2018-05-07T12:20:58.734Z,35.55
2018-05-07T12:21:58.559Z,35.14
2018-05-07T12:22:58.644Z,36.82
2018-05-07T12:23:58.543Z,35.06
2018-05-07T12:24:58.556Z,35.46
2018-05-07T12:25:58.519Z,34.78
2018-05-07T12:26:58.570Z,35.48
2018-05-07T12:27:58.501Z,36.36
2018-05-07T12:28:58.583Z,35.38
2018-05-07T12:29:58.481Z,35.89
2018-05-07T12:30:58.497Z,36.30
2018-05-07T12:31:58.484Z,34.64
2018-05-07T12:32:58.512Z,36.79
2018-05-07T12:33:58.441Z,34.93
2018-05-07T12:34:58.526Z,36.20
2018-05-07T12:35:58.426Z,34.34
2018-05-07T12:36:58.538Z,35.42
2018-05-07T12:37:58.405Z,36.00
2018-05-07T12:38:58.455Z,35.13
2018-05-07T12:39:58.388Z,35.52
2018-05-07T12:40:58.467Z,33.85
2018-05-07T12:41:58.367Z,35.22
2018-05-07T12:42:58.482Z,35.71
2018-05-07T12:43:58.347Z,37.08
2018-05-07T12:44:58.390Z,36.88
2018-05-07T12:45:58.327Z,36.79
2018-05-07T12:46:58.406Z,34.06
2018-05-07T12:47:58.312Z,32.19
2018-05-07T12:48:58.426Z,33.65
2018-05-07T12:49:58.295Z,35.32
2018-05-07T12:50:58.330Z,32.48
2018-05-07T12:51:58.279Z,34.34